EZS1589 LSGG-EDDB
Flight info
| Callsign | EZS1589 |
|---|---|
| Flight time | N/A |
| Altitude | 37000 |
| Route | SOSAL N871 KORED DCT BERSU DCT DITON DCT LOKTA DCT TIKNI T279 TAMEB T278 KLF KLF1R |
| Aircraft | A320/M-SDE2E3FGHIJ1RWXYZ/LB1 |
Departure
| Time | 2026-05-06 08:48 |
|---|---|
| Airport | Geneva International Airport (LSGG) |
Arrival
| Time | N/A |
|---|---|
| Airport | Berlin Brandenburg Airport (EDDB) |
| Time | Latitude | Longitude | Altitude | Speed | Heading |
|---|---|---|---|---|---|
| 2026-05-06 08:30 | 46.23054 | 6.10614 | 1393 ft | 0 kts | 136° |
| 2026-05-06 08:36 | 46.23065 | 6.10598 | 1393 ft | 4 kts | 129° |
| 2026-05-06 08:36 | 46.23079 | 6.10566 | 1393 ft | 4 kts | 104° |
| 2026-05-06 08:37 | 46.23079 | 6.10532 | 1403 ft | 4 kts | 52° |
| 2026-05-06 08:37 | 46.23073 | 6.10522 | 1393 ft | 0 kts | 45° |
| 2026-05-06 08:39 | 46.23078 | 6.10530 | 1393 ft | 4 kts | 45° |
| 2026-05-06 08:39 | 46.23120 | 6.10592 | 1400 ft | 13 kts | 45° |
| 2026-05-06 08:39 | 46.23129 | 6.10596 | 1393 ft | 3 kts | 11° |
| 2026-05-06 08:40 | 46.23186 | 6.10688 | 1404 ft | 17 kts | 46° |
| 2026-05-06 08:40 | 46.23264 | 6.10779 | 1401 ft | 12 kts | 20° |
| 2026-05-06 08:40 | 46.23333 | 6.10818 | 1393 ft | 10 kts | 35° |
| 2026-05-06 08:40 | 46.23398 | 6.10908 | 1394 ft | 16 kts | 45° |
| 2026-05-06 08:41 | 46.23489 | 6.11043 | 1397 ft | 21 kts | 46° |
| 2026-05-06 08:41 | 46.23587 | 6.11168 | 1396 ft | 15 kts | 10° |
| 2026-05-06 08:41 | 46.23655 | 6.11089 | 1386 ft | 11 kts | 314° |
| 2026-05-06 08:41 | 46.23727 | 6.11112 | 1381 ft | 19 kts | 45° |
| 2026-05-06 08:42 | 46.23850 | 6.11293 | 1376 ft | 27 kts | 45° |
| 2026-05-06 08:42 | 46.23982 | 6.11487 | 1372 ft | 27 kts | 45° |
| 2026-05-06 08:42 | 46.24111 | 6.11677 | 1367 ft | 26 kts | 45° |
| 2026-05-06 08:42 | 46.24235 | 6.11858 | 1361 ft | 24 kts | 45° |
| 2026-05-06 08:43 | 46.24346 | 6.12022 | 1365 ft | 21 kts | 45° |
| 2026-05-06 08:43 | 46.24446 | 6.12168 | 1371 ft | 21 kts | 46° |
| 2026-05-06 08:43 | 46.24551 | 6.12324 | 1371 ft | 23 kts | 45° |
| 2026-05-06 08:43 | 46.24671 | 6.12496 | 1365 ft | 24 kts | 46° |
| 2026-05-06 08:44 | 46.24788 | 6.12657 | 1362 ft | 21 kts | 28° |
| 2026-05-06 08:44 | 46.24899 | 6.12712 | 1365 ft | 12 kts | 17° |
| 2026-05-06 08:44 | 46.24923 | 6.12723 | 1366 ft | 0 kts | 17° |
| 2026-05-06 08:46 | 46.24927 | 6.12725 | 1367 ft | 3 kts | 17° |
| 2026-05-06 08:46 | 46.24976 | 6.12717 | 1369 ft | 9 kts | 327° |
| 2026-05-06 08:46 | 46.25000 | 6.12685 | 1371 ft | 1 kts | 311° |
| 2026-05-06 08:47 | 46.25004 | 6.12668 | 1371 ft | 5 kts | 280° |
| 2026-05-06 08:47 | 46.24970 | 6.12604 | 1372 ft | 14 kts | 226° |
| 2026-05-06 08:47 | 46.24789 | 6.12339 | 1372 ft | 69 kts | 225° |
| 2026-05-06 08:47 | 46.24312 | 6.11637 | 1373 ft | 124 kts | 225° |
| 2026-05-06 08:48 | 46.23608 | 6.10604 | 1513 ft | 156 kts | 226° |
| 2026-05-06 08:48 | 46.22836 | 6.09475 | 2131 ft | 161 kts | 226° |
| 2026-05-06 08:48 | 46.22029 | 6.08309 | 2726 ft | 171 kts | 226° |
| 2026-05-06 08:48 | 46.21263 | 6.06925 | 3108 ft | 188 kts | 249° |
| 2026-05-06 08:49 | 46.21312 | 6.05039 | 3608 ft | 200 kts | 296° |
| 2026-05-06 08:49 | 46.22347 | 6.03707 | 4196 ft | 209 kts | 339° |
| 2026-05-06 08:49 | 46.23800 | 6.03731 | 4725 ft | 217 kts | 17° |
| 2026-05-06 08:49 | 46.25216 | 6.04524 | 5322 ft | 220 kts | 23° |
| 2026-05-06 08:50 | 46.26612 | 6.05458 | 5948 ft | 223 kts | 31° |
| 2026-05-06 08:50 | 46.27835 | 6.06919 | 6371 ft | 239 kts | 45° |
| 2026-05-06 08:50 | 46.29084 | 6.08684 | 6691 ft | 263 kts | 44° |
| 2026-05-06 08:50 | 46.30469 | 6.10597 | 7056 ft | 286 kts | 44° |
| 2026-05-06 08:51 | 46.31945 | 6.12613 | 7718 ft | 296 kts | 44° |
| 2026-05-06 08:51 | 46.33462 | 6.14666 | 8539 ft | 300 kts | 44° |
| 2026-05-06 08:51 | 46.35000 | 6.16739 | 9375 ft | 304 kts | 44° |
| 2026-05-06 08:51 | 46.36565 | 6.18835 | 10116 ft | 310 kts | 43° |
| 2026-05-06 08:52 | 46.38224 | 6.21013 | 10403 ft | 333 kts | 43° |
| 2026-05-06 08:52 | 46.39997 | 6.23316 | 10832 ft | 348 kts | 42° |
| 2026-05-06 08:52 | 46.41822 | 6.25683 | 11485 ft | 355 kts | 43° |
| 2026-05-06 08:52 | 46.43658 | 6.28097 | 12219 ft | 358 kts | 44° |
| 2026-05-06 08:53 | 46.45499 | 6.30551 | 12915 ft | 362 kts | 44° |
| 2026-05-06 08:53 | 46.47357 | 6.33048 | 13629 ft | 366 kts | 44° |
| 2026-05-06 08:53 | 46.49230 | 6.35575 | 14279 ft | 369 kts | 44° |
| 2026-05-06 08:53 | 46.51121 | 6.38126 | 14893 ft | 373 kts | 44° |
| 2026-05-06 08:54 | 46.53016 | 6.40705 | 15564 ft | 375 kts | 47° |
| 2026-05-06 08:54 | 46.54648 | 6.43663 | 16178 ft | 376 kts | 60° |
| 2026-05-06 08:54 | 46.55819 | 6.47052 | 16845 ft | 375 kts | 71° |
| 2026-05-06 08:54 | 46.56506 | 6.50719 | 17408 ft | 377 kts | 83° |
| 2026-05-06 08:55 | 46.56660 | 6.54511 | 18012 ft | 376 kts | 94° |
| 2026-05-06 08:55 | 46.56568 | 6.58324 | 18574 ft | 379 kts | 95° |
| 2026-05-06 08:55 | 46.56472 | 6.62156 | 19169 ft | 380 kts | 95° |
| 2026-05-06 08:55 | 46.56375 | 6.65992 | 19783 ft | 380 kts | 95° |
| 2026-05-06 08:56 | 46.56278 | 6.69833 | 20384 ft | 381 kts | 95° |
| 2026-05-06 08:56 | 46.56181 | 6.73677 | 20979 ft | 381 kts | 95° |
| 2026-05-06 08:56 | 46.56084 | 6.77528 | 21545 ft | 382 kts | 95° |
| 2026-05-06 08:56 | 46.55990 | 6.81384 | 22110 ft | 383 kts | 93° |
| 2026-05-06 08:57 | 46.56197 | 6.85254 | 22666 ft | 387 kts | 82° |
| 2026-05-06 08:57 | 46.56930 | 6.89037 | 23144 ft | 394 kts | 72° |
| 2026-05-06 08:57 | 46.58201 | 6.92618 | 23504 ft | 405 kts | 59° |
| 2026-05-06 08:57 | 46.59948 | 6.95874 | 23828 ft | 412 kts | 54° |
| 2026-05-06 08:58 | 46.61770 | 6.99112 | 24163 ft | 416 kts | 54° |
| 2026-05-06 08:58 | 46.63598 | 7.02395 | 24487 ft | 420 kts | 54° |
| 2026-05-06 08:58 | 46.65437 | 7.05720 | 24807 ft | 424 kts | 54° |
| 2026-05-06 08:58 | 46.67292 | 7.09085 | 25128 ft | 428 kts | 54° |
| 2026-05-06 08:59 | 46.69164 | 7.12489 | 25448 ft | 432 kts | 55° |
| 2026-05-06 08:59 | 46.71054 | 7.15923 | 25761 ft | 437 kts | 55° |
| 2026-05-06 08:59 | 46.72963 | 7.19394 | 26074 ft | 440 kts | 55° |
| 2026-05-06 08:59 | 46.74889 | 7.22892 | 26395 ft | 444 kts | 55° |
| 2026-05-06 09:00 | 46.76831 | 7.26418 | 26748 ft | 447 kts | 54° |
| 2026-05-06 09:00 | 46.78786 | 7.29969 | 27071 ft | 451 kts | 55° |
| 2026-05-06 09:00 | 46.80754 | 7.33552 | 27374 ft | 454 kts | 55° |
| 2026-05-06 09:00 | 46.82739 | 7.37175 | 27556 ft | 460 kts | 54° |
| 2026-05-06 09:01 | 46.84755 | 7.40855 | 27719 ft | 467 kts | 54° |
| 2026-05-06 09:01 | 46.86793 | 7.44584 | 27988 ft | 472 kts | 54° |
| 2026-05-06 09:01 | 46.88848 | 7.48353 | 28271 ft | 475 kts | 55° |
| 2026-05-06 09:01 | 46.90913 | 7.52150 | 28560 ft | 479 kts | 55° |
| 2026-05-06 09:02 | 46.92991 | 7.55976 | 28859 ft | 482 kts | 55° |
| 2026-05-06 09:02 | 46.95082 | 7.59833 | 29178 ft | 485 kts | 55° |
| 2026-05-06 09:02 | 46.97186 | 7.63717 | 29479 ft | 488 kts | 55° |
| 2026-05-06 09:02 | 46.99298 | 7.67631 | 29745 ft | 491 kts | 55° |
| 2026-05-06 09:03 | 47.01422 | 7.71576 | 30012 ft | 495 kts | 55° |
| 2026-05-06 09:03 | 47.03558 | 7.75545 | 30258 ft | 497 kts | 55° |
| 2026-05-06 09:03 | 47.05705 | 7.79535 | 30523 ft | 499 kts | 55° |
| 2026-05-06 09:03 | 47.07862 | 7.83538 | 30776 ft | 501 kts | 55° |
| 2026-05-06 09:04 | 47.10027 | 7.87555 | 31020 ft | 503 kts | 55° |
| 2026-05-06 09:04 | 47.12195 | 7.91587 | 31283 ft | 503 kts | 55° |
| 2026-05-06 09:04 | 47.14243 | 7.95716 | 31684 ft | 497 kts | 62° |
| 2026-05-06 09:04 | 47.16073 | 8.00012 | 32059 ft | 496 kts | 62° |
| 2026-05-06 09:05 | 47.17902 | 8.04309 | 32405 ft | 495 kts | 62° |
| 2026-05-06 09:05 | 47.19729 | 8.08595 | 32750 ft | 495 kts | 62° |
| 2026-05-06 09:05 | 47.21562 | 8.12888 | 33094 ft | 495 kts | 62° |
| 2026-05-06 09:05 | 47.23390 | 8.17179 | 33419 ft | 495 kts | 62° |
| 2026-05-06 09:06 | 47.25215 | 8.21477 | 33752 ft | 495 kts | 62° |
| 2026-05-06 09:06 | 47.27036 | 8.25776 | 34065 ft | 494 kts | 62° |
| 2026-05-06 09:06 | 47.28976 | 8.29963 | 34358 ft | 496 kts | 54° |
| 2026-05-06 09:06 | 47.31306 | 8.33719 | 34658 ft | 498 kts | 44° |
| 2026-05-06 09:07 | 47.33988 | 8.36939 | 34953 ft | 498 kts | 35° |
| 2026-05-06 09:07 | 47.36878 | 8.39736 | 35240 ft | 496 kts | 33° |
| 2026-05-06 09:07 | 47.39767 | 8.42514 | 35524 ft | 495 kts | 33° |
| 2026-05-06 09:07 | 47.42641 | 8.45295 | 35819 ft | 493 kts | 33° |
| 2026-05-06 09:08 | 47.45503 | 8.48076 | 36103 ft | 492 kts | 33° |
| 2026-05-06 09:08 | 47.48357 | 8.50849 | 36400 ft | 490 kts | 33° |
| 2026-05-06 09:08 | 47.51203 | 8.53619 | 36665 ft | 489 kts | 33° |
| 2026-05-06 09:08 | 47.54047 | 8.56388 | 36808 ft | 489 kts | 33° |
| 2026-05-06 09:09 | 47.56881 | 8.59150 | 36846 ft | 487 kts | 33° |
| 2026-05-06 09:09 | 47.62529 | 8.64660 | 36834 ft | 485 kts | 33° |
| 2026-05-06 09:10 | 47.68157 | 8.70172 | 36833 ft | 485 kts | 33° |
| 2026-05-06 09:10 | 47.73788 | 8.75708 | 36832 ft | 486 kts | 34° |
| 2026-05-06 09:11 | 47.78472 | 8.80315 | 36835 ft | 486 kts | 34° |
| 2026-05-06 09:11 | 47.84114 | 8.85879 | 36822 ft | 486 kts | 34° |
| 2026-05-06 09:12 | 47.89750 | 8.91456 | 36806 ft | 487 kts | 33° |
| 2026-05-06 09:12 | 47.95394 | 8.97041 | 36818 ft | 487 kts | 33° |
| 2026-05-06 09:13 | 48.01035 | 9.02650 | 36816 ft | 487 kts | 34° |
| 2026-05-06 09:13 | 48.06668 | 9.08274 | 36817 ft | 487 kts | 34° |
| 2026-05-06 09:14 | 48.12304 | 9.13909 | 36825 ft | 487 kts | 33° |
| 2026-05-06 09:14 | 48.18323 | 9.18470 | 36820 ft | 485 kts | 16° |
| 2026-05-06 09:15 | 48.24868 | 9.20678 | 36810 ft | 482 kts | 8° |
| 2026-05-06 09:15 | 48.31456 | 9.22610 | 36819 ft | 482 kts | 8° |
| 2026-05-06 09:16 | 48.38031 | 9.24583 | 36822 ft | 481 kts | 8° |
| 2026-05-06 09:16 | 48.44599 | 9.26543 | 36826 ft | 481 kts | 8° |
| 2026-05-06 09:17 | 48.51166 | 9.28486 | 36816 ft | 480 kts | 8° |
| 2026-05-06 09:17 | 48.57721 | 9.30435 | 36823 ft | 480 kts | 8° |
| 2026-05-06 09:18 | 48.64275 | 9.32395 | 36824 ft | 480 kts | 8° |
| 2026-05-06 09:18 | 48.70823 | 9.34375 | 36826 ft | 480 kts | 8° |
| 2026-05-06 09:19 | 48.77366 | 9.36347 | 36834 ft | 479 kts | 8° |
| 2026-05-06 09:19 | 48.83907 | 9.38308 | 36820 ft | 478 kts | 8° |
| 2026-05-06 09:20 | 48.90430 | 9.40275 | 36822 ft | 478 kts | 8° |
| 2026-05-06 09:20 | 48.96941 | 9.42251 | 36831 ft | 476 kts | 8° |
| 2026-05-06 09:21 | 49.03433 | 9.44229 | 36828 ft | 475 kts | 8° |
| 2026-05-06 09:21 | 49.09908 | 9.46202 | 36829 ft | 474 kts | 8° |
| 2026-05-06 09:22 | 49.16372 | 9.48177 | 36829 ft | 473 kts | 9° |
| 2026-05-06 09:22 | 49.22821 | 9.50158 | 36825 ft | 473 kts | 9° |
| 2026-05-06 09:23 | 49.29263 | 9.52139 | 36816 ft | 472 kts | 9° |
| 2026-05-06 09:23 | 49.35703 | 9.54124 | 36830 ft | 472 kts | 9° |
| 2026-05-06 09:24 | 49.42133 | 9.56117 | 36823 ft | 471 kts | 9° |
| 2026-05-06 09:24 | 49.48560 | 9.58104 | 36816 ft | 471 kts | 9° |
| 2026-05-06 09:25 | 49.54982 | 9.60093 | 36810 ft | 471 kts | 9° |
| 2026-05-06 09:25 | 49.61406 | 9.62086 | 36814 ft | 471 kts | 9° |
| 2026-05-06 09:26 | 49.67841 | 9.64098 | 36803 ft | 471 kts | 9° |
| 2026-05-06 09:26 | 49.74269 | 9.66113 | 36797 ft | 471 kts | 9° |
| 2026-05-06 09:27 | 49.80694 | 9.68131 | 36793 ft | 471 kts | 9° |
| 2026-05-06 09:27 | 49.87118 | 9.70155 | 36790 ft | 471 kts | 9° |
| 2026-05-06 09:28 | 49.93540 | 9.72193 | 36788 ft | 471 kts | 9° |
| 2026-05-06 09:28 | 49.99964 | 9.74228 | 36785 ft | 471 kts | 9° |
| 2026-05-06 09:29 | 50.06387 | 9.76256 | 36796 ft | 471 kts | 9° |
| 2026-05-06 09:29 | 50.12806 | 9.78300 | 36795 ft | 470 kts | 9° |
| 2026-05-06 09:30 | 50.19169 | 9.80334 | 36787 ft | 470 kts | 9° |
| 2026-05-06 09:30 | 50.25574 | 9.82380 | 36792 ft | 470 kts | 9° |
| 2026-05-06 09:31 | 50.31972 | 9.84422 | 36799 ft | 469 kts | 9° |
| 2026-05-06 09:31 | 50.38277 | 9.86997 | 36794 ft | 470 kts | 22° |
| 2026-05-06 09:32 | 50.43840 | 9.92328 | 36791 ft | 471 kts | 41° |
| 2026-05-06 09:32 | 50.48413 | 9.99660 | 36789 ft | 470 kts | 47° |
| 2026-05-06 09:33 | 50.52901 | 10.07136 | 36784 ft | 470 kts | 47° |
| 2026-05-06 09:33 | 50.57391 | 10.14630 | 36775 ft | 470 kts | 47° |
| 2026-05-06 09:34 | 50.61868 | 10.22131 | 36772 ft | 470 kts | 47° |
| 2026-05-06 09:34 | 50.66035 | 10.30023 | 36765 ft | 468 kts | 60° |
| 2026-05-06 09:35 | 50.69168 | 10.39006 | 36742 ft | 468 kts | 63° |
| 2026-05-06 09:35 | 50.72270 | 10.48057 | 36744 ft | 470 kts | 63° |
| 2026-05-06 09:36 | 50.75382 | 10.57144 | 36757 ft | 471 kts | 63° |
| 2026-05-06 09:36 | 50.78491 | 10.66270 | 36768 ft | 472 kts | 63° |
| 2026-05-06 09:37 | 50.81597 | 10.75401 | 36782 ft | 471 kts | 63° |
| 2026-05-06 09:37 | 50.84701 | 10.84536 | 36796 ft | 472 kts | 63° |
| 2026-05-06 09:38 | 50.87784 | 10.93692 | 36783 ft | 471 kts | 63° |
| 2026-05-06 09:38 | 50.90858 | 11.02859 | 36782 ft | 471 kts | 63° |
| 2026-05-06 09:39 | 50.93926 | 11.12034 | 36782 ft | 471 kts | 63° |
| 2026-05-06 09:39 | 50.96984 | 11.21222 | 36780 ft | 471 kts | 63° |
| 2026-05-06 09:40 | 51.00044 | 11.30408 | 36767 ft | 471 kts | 63° |
| 2026-05-06 09:40 | 51.04618 | 11.44216 | 36753 ft | 471 kts | 64° |
| 2026-05-06 09:41 | 51.07656 | 11.53435 | 36759 ft | 471 kts | 64° |
| 2026-05-06 09:41 | 51.10680 | 11.62679 | 36697 ft | 472 kts | 64° |
| 2026-05-06 09:42 | 51.12204 | 11.67356 | 35655 ft | 483 kts | 64° |
| 2026-05-06 09:42 | 51.13760 | 11.72140 | 34895 ft | 486 kts | 64° |
| 2026-05-06 09:42 | 51.15299 | 11.76873 | 34524 ft | 479 kts | 64° |
| 2026-05-06 09:42 | 51.16829 | 11.81585 | 33969 ft | 477 kts | 64° |
| 2026-05-06 09:43 | 51.18349 | 11.86274 | 33384 ft | 475 kts | 64° |
| 2026-05-06 09:43 | 51.19858 | 11.90929 | 32868 ft | 471 kts | 63° |
| 2026-05-06 09:43 | 51.21612 | 11.95307 | 32355 ft | 467 kts | 53° |
| 2026-05-06 09:43 | 51.23755 | 11.99170 | 31821 ft | 463 kts | 45° |
| 2026-05-06 09:44 | 51.25973 | 12.02862 | 31332 ft | 459 kts | 46° |
| 2026-05-06 09:44 | 51.28167 | 12.06535 | 30834 ft | 456 kts | 45° |
| 2026-05-06 09:44 | 51.30339 | 12.10193 | 30348 ft | 452 kts | 45° |
| 2026-05-06 09:44 | 51.32492 | 12.13835 | 29865 ft | 449 kts | 45° |